TimeEDT,TemperatureF,Dew PointF,Humidity,Sea Level PressureIn,VisibilityMPH,Wind Direction,Wind SpeedMPH,Gust SpeedMPH,PrecipitationIn,Events,Conditions,WindDirDegrees,DateUTC
12:56 AM,54.0,48.9,83,30.11,10.0,SW,6.9,-,N/A,,Clear,230,2012-10-05 04:56:00
1:56 AM,54.0,48.9,83,30.11,10.0,SW,4.6,-,N/A,,Clear,230,2012-10-05 05:56:00
2:56 AM,55.9,50.0,80,30.11,10.0,SW,8.1,-,N/A,,Clear,230,2012-10-05 06:56:00
3:56 AM,55.0,50.0,83,30.10,10.0,SW,6.9,-,N/A,,Scattered Clouds,230,2012-10-05 07:56:00
4:56 AM,55.0,51.1,86,30.10,10.0,SW,6.9,-,N/A,,Clear,230,2012-10-05 08:56:00
5:56 AM,54.0,50.0,86,30.09,10.0,SW,5.8,-,N/A,,Clear,220,2012-10-05 09:56:00
6:56 AM,53.1,50.0,89,30.11,10.0,SW,5.8,-,N/A,,Clear,230,2012-10-05 10:56:00
7:56 AM,55.9,52.0,87,30.11,10.0,SW,6.9,-,N/A,,Partly Cloudy,230,2012-10-05 11:56:00
8:56 AM,57.9,53.1,84,30.11,10.0,SW,10.4,-,N/A,,Clear,230,2012-10-05 12:56:00
9:56 AM,62.1,54.0,75,30.09,10.0,WSW,13.8,-,N/A,,Clear,240,2012-10-05 13:56:00
10:56 AM,66.0,54.0,65,30.08,10.0,WSW,12.7,17.3,N/A,,Clear,250,2012-10-05 14:56:00
11:56 AM,68.0,54.0,61,30.06,10.0,WSW,11.5,16.1,N/A,,Mostly Cloudy,250,2012-10-05 15:56:00
12:56 PM,70.0,54.0,57,30.05,10.0,WSW,13.8,18.4,N/A,,Mostly Cloudy,240,2012-10-05 16:56:00
1:56 PM,68.0,55.0,63,30.04,10.0,WSW,10.4,17.3,N/A,,Overcast,250,2012-10-05 17:56:00
2:56 PM,71.1,54.0,55,30.01,10.0,WSW,12.7,19.6,N/A,,Mostly Cloudy,240,2012-10-05 18:56:00
3:56 PM,69.1,55.0,61,30.00,10.0,WSW,8.1,-,N/A,,Mostly Cloudy,250,2012-10-05 19:56:00
4:56 PM,66.9,55.0,66,29.99,10.0,West,5.8,-,N/A,,Overcast,270,2012-10-05 20:56:00
5:56 PM,66.0,55.9,70,29.99,10.0,SW,3.5,-,N/A,,Mostly Cloudy,230,2012-10-05 21:56:00
6:56 PM,64.0,55.9,75,29.97,10.0,Calm,Calm,-,N/A,,Overcast,0,2012-10-05 22:56:00
7:56 PM,63.0,55.0,75,29.96,10.0,Calm,Calm,-,N/A,,Clear,0,2012-10-05 23:56:00
8:56 PM,63.0,54.0,72,29.94,10.0,South,5.8,-,N/A,,Clear,190,2012-10-06 00:56:00
9:56 PM,63.0,53.1,70,29.92,10.0,SSW,5.8,-,N/A,,Partly Cloudy,210,2012-10-06 01:56:00
10:56 PM,63.0,53.1,70,29.89,10.0,SSW,6.9,-,N/A,,Overcast,200,2012-10-06 02:56:00
11:56 PM,64.0,52.0,65,29.87,10.0,SSW,8.1,-,N/A,,Overcast,200,2012-10-06 03:56:00